Time;durP1;ratioP1;P1;durP2;ratioP2;P2;SDS_P1;SDS_P2;PMS_P1;PMS_P2;Temp;Humidity;BMP_temperature;BMP_pressure;BME280_temperature;BME280_humidity;BME280_pressure;Samples;Min_cycle;Max_cycle;Signal;HPM_P1;HPM_P2
2021/05/09 00:02:17;;;;;;;;;;;21.60;33.10;;;;;;5051692;28;75052;-65
2021/05/09 00:04:42;;;;;;;;;;;21.60;33.70;;;;;;5052093;28;75355;-68
2021/05/09 00:07:10;;;;;;;;;;;21.60;33.80;;;;;;5084293;27;77785;-67
2021/05/09 00:09:35;;;;;;;;;;;21.70;33.90;;;;;;5050072;28;76200;-66
2021/05/09 00:12:01;;;;;;;;;;;21.60;33.90;;;;;;5050350;28;75636;-66
2021/05/09 00:14:27;;;;;;;;;;;21.70;34.10;;;;;;5050240;27;75365;-65
2021/05/09 00:16:52;;;;;;;;;;;21.70;34.20;;;;;;5055283;28;74417;-69
2021/05/09 00:19:18;;;;;;;;;;;21.70;33.90;;;;;;5053441;28;77711;-68
2021/05/09 00:21:44;;;;;;;;;;;21.70;33.50;;;;;;5053819;28;77866;-67
2021/05/09 00:24:09;;;;;;;;;;;21.70;33.30;;;;;;5055122;28;75281;-70
2021/05/09 00:26:35;;;;;;;;;;;21.60;33.20;;;;;;5053720;28;78014;-67
2021/05/09 00:29:00;;;;;;;;;;;21.60;33.20;;;;;;5055168;28;75384;-68
2021/05/09 00:31:26;;;;;;;;;;;21.60;33.40;;;;;;5053021;28;75205;-68
2021/05/09 00:33:52;;;;;;;;;;;21.50;33.50;;;;;;5053577;28;74630;-68
2021/05/09 00:36:18;;;;;;;;;;;21.50;33.70;;;;;;5053784;28;77087;-67
2021/05/09 00:38:43;;;;;;;;;;;21.50;33.90;;;;;;5054477;27;74533;-66
2021/05/09 00:41:09;;;;;;;;;;;21.40;33.70;;;;;;5042340;28;75374;-70
2021/05/09 00:43:34;;;;;;;;;;;21.40;33.70;;;;;;5045832;27;75416;-65
2021/05/09 00:46:00;;;;;;;;;;;21.40;33.70;;;;;;5054888;28;75272;-67
2021/05/09 00:48:26;;;;;;;;;;;21.40;33.30;;;;;;5038380;28;75269;-67
2021/05/09 00:50:51;;;;;;;;;;;21.40;33.30;;;;;;5035253;28;74502;-68
2021/05/09 00:53:19;;;;;;;;;;;21.40;33.20;;;;;;5039335;28;77625;-68
2021/05/09 00:55:45;;;;;;;;;;;21.30;33.30;;;;;;5053068;28;75695;-75
2021/05/09 00:58:13;;;;;;;;;;;21.20;33.40;;;;;;5053131;28;76139;-75
2021/05/09 01:00:38;;;;;;;;;;;21.20;33.60;;;;;;5052778;28;77347;-74
2021/05/09 01:03:07;;;;;;;;;;;21.20;33.70;;;;;;5054683;27;75126;-74
2021/05/09 01:05:33;;;;;;;;;;;21.20;33.70;;;;;;5054913;28;74492;-79
2021/05/09 01:08:00;;;;;;;;;;;21.20;33.70;;;;;;5054440;28;75268;-77
2021/05/09 01:10:27;;;;;;;;;;;21.10;34.00;;;;;;5052751;28;95269;-69
2021/05/09 01:12:53;;;;;;;;;;;20.90;34.00;;;;;;5054613;28;75213;-66
2021/05/09 01:15:19;;;;;;;;;;;20.90;34.20;;;;;;5052942;27;77449;-66
2021/05/09 01:17:45;;;;;;;;;;;20.90;34.50;;;;;;5052682;28;75777;-66
2021/05/09 01:20:11;;;;;;;;;;;20.90;34.60;;;;;;5052893;27;75278;-65
2021/05/09 01:22:36;;;;;;;;;;;20.90;34.60;;;;;;5052636;28;76631;-73
2021/05/09 01:25:03;;;;;;;;;;;20.90;34.70;;;;;;5052537;28;77263;-67
2021/05/09 01:27:29;;;;;;;;;;;20.90;34.90;;;;;;5054096;28;75221;-77
2021/05/09 01:29:54;;;;;;;;;;;20.90;34.90;;;;;;5087007;27;75949;-72
2021/05/09 01:32:20;;;;;;;;;;;20.80;35.10;;;;;;5052556;28;77274;-70
2021/05/09 01:34:46;;;;;;;;;;;20.90;35.20;;;;;;5053181;27;74588;-69
2021/05/09 01:37:11;;;;;;;;;;;20.90;35.30;;;;;;5052582;28;77726;-70
2021/05/09 01:39:37;;;;;;;;;;;20.90;35.10;;;;;;5053761;28;75250;-73
2021/05/09 01:42:02;;;;;;;;;;;20.90;35.20;;;;;;5054149;28;75030;-70
2021/05/09 01:44:28;;;;;;;;;;;20.90;35.20;;;;;;5052143;27;78277;-70
2021/05/09 01:46:54;;;;;;;;;;;20.90;35.10;;;;;;5053615;28;75912;-71
2021/05/09 01:49:20;;;;;;;;;;;20.90;35.20;;;;;;5053756;28;74557;-74
2021/05/09 01:51:46;;;;;;;;;;;21.00;35.70;;;;;;5053361;27;75258;-72
2021/05/09 01:54:11;;;;;;;;;;;20.90;35.70;;;;;;5052210;28;74712;-75
2021/05/09 01:56:37;;;;;;;;;;;21.00;35.70;;;;;;5051812;28;76159;-73
2021/05/09 01:59:03;;;;;;;;;;;20.90;35.90;;;;;;5052075;28;77183;-71
2021/05/09 02:01:28;;;;;;;;;;;20.90;36.00;;;;;;5053493;28;75136;-73
2021/05/09 02:03:54;;;;;;;;;;;20.90;36.30;;;;;;5051794;28;74666;-74
2021/05/09 02:06:20;;;;;;;;;;;20.80;36.40;;;;;;5053426;28;75635;-74
2021/05/09 02:08:45;;;;;;;;;;;20.70;36.40;;;;;;5053288;28;75127;-72
2021/05/09 02:11:11;;;;;;;;;;;20.70;36.50;;;;;;5053438;28;75140;-69
2021/05/09 02:13:36;;;;;;;;;;;20.70;36.70;;;;;;5051700;27;76180;-74
2021/05/09 02:16:02;;;;;;;;;;;20.70;36.40;;;;;;5053578;28;74447;-68
2021/05/09 02:18:28;;;;;;;;;;;20.80;36.70;;;;;;5053427;28;74391;-67
2021/05/09 02:20:53;;;;;;;;;;;20.70;36.60;;;;;;5053118;28;75276;-70
2021/05/09 02:23:20;;;;;;;;;;;20.80;36.50;;;;;;5053228;28;75364;-69
2021/05/09 02:25:46;;;;;;;;;;;20.80;36.50;;;;;;5051518;28;75640;-67
2021/05/09 02:28:11;;;;;;;;;;;20.80;36.40;;;;;;5052022;28;76716;-67
2021/05/09 02:30:37;;;;;;;;;;;20.80;36.40;;;;;;5053457;28;74500;-67
2021/05/09 02:33:03;;;;;;;;;;;20.80;36.40;;;;;;5053258;28;75411;-65
2021/05/09 02:35:28;;;;;;;;;;;20.80;36.70;;;;;;5051477;28;78517;-68
2021/05/09 02:37:54;;;;;;;;;;;20.90;36.60;;;;;;5050754;27;75188;-66
2021/05/09 02:40:20;;;;;;;;;;;20.90;36.60;;;;;;5053020;28;75338;-66
2021/05/09 02:42:47;;;;;;;;;;;20.80;36.40;;;;;;5051102;28;76586;-65
2021/05/09 02:45:13;;;;;;;;;;;20.90;36.50;;;;;;5051335;27;75353;-66
2021/05/09 02:47:38;;;;;;;;;;;20.90;36.40;;;;;;5051166;28;76165;-74
2021/05/09 02:50:06;;;;;;;;;;;20.90;36.50;;;;;;5051216;28;75496;-74
2021/05/09 02:52:31;;;;;;;;;;;20.90;36.70;;;;;;5051323;28;76003;-74
2021/05/09 02:54:57;;;;;;;;;;;20.90;36.40;;;;;;5051071;28;75303;-74
2021/05/09 02:57:22;;;;;;;;;;;20.90;36.40;;;;;;5051577;28;75398;-74
2021/05/09 02:59:48;;;;;;;;;;;20.90;36.40;;;;;;5052298;27;75188;-71
2021/05/09 03:02:14;;;;;;;;;;;20.90;36.40;;;;;;5051142;28;75220;-71
2021/05/09 03:04:39;;;;;;;;;;;20.90;36.50;;;;;;5050709;28;77395;-72
2021/05/09 03:07:05;;;;;;;;;;;20.90;36.70;;;;;;5052198;28;74888;-70
2021/05/09 03:09:31;;;;;;;;;;;20.90;36.60;;;;;;5052596;28;75197;-68
2021/05/09 03:11:58;;;;;;;;;;;20.90;36.50;;;;;;5050815;28;77241;-71
2021/05/09 03:14:23;;;;;;;;;;;20.90;36.60;;;;;;5052697;27;75201;-72
2021/05/09 03:16:49;;;;;;;;;;;20.90;36.50;;;;;;5084757;27;77666;-71
2021/05/09 03:19:15;;;;;;;;;;;20.90;36.90;;;;;;5050874;28;77225;-69
2021/05/09 03:21:42;;;;;;;;;;;20.90;37.10;;;;;;5050928;28;77592;-67
2021/05/09 03:24:08;;;;;;;;;;;20.90;37.30;;;;;;5050550;28;77753;-67
2021/05/09 03:26:34;;;;;;;;;;;20.90;37.50;;;;;;5052567;28;75064;-76
2021/05/09 03:28:59;;;;;;;;;;;20.80;37.50;;;;;;5052132;28;74449;-70
2021/05/09 03:31:25;;;;;;;;;;;20.80;37.90;;;;;;5052793;28;75205;-70
2021/05/09 03:33:50;;;;;;;;;;;20.80;38.00;;;;;;5052475;28;75432;-66
2021/05/09 03:36:16;;;;;;;;;;;20.70;38.20;;;;;;5053087;28;74415;-67
2021/05/09 03:38:42;;;;;;;;;;;20.70;38.50;;;;;;5052452;28;75423;-66
2021/05/09 03:41:07;;;;;;;;;;;20.60;38.70;;;;;;5050666;28;74683;-72
2021/05/09 03:43:33;;;;;;;;;;;20.60;39.00;;;;;;5052255;27;75352;-73
2021/05/09 03:45:58;;;;;;;;;;;20.60;39.10;;;;;;5050420;28;76596;-72
2021/05/09 03:48:24;;;;;;;;;;;20.60;38.60;;;;;;5050492;27;77034;-71
2021/05/09 03:50:49;;;;;;;;;;;20.60;38.60;;;;;;5055086;28;75299;-73
2021/05/09 03:53:15;;;;;;;;;;;20.60;39.40;;;;;;5054066;28;75721;-71
2021/05/09 03:55:41;;;;;;;;;;;20.60;39.40;;;;;;5055771;28;75385;-73
2021/05/09 03:58:07;;;;;;;;;;;20.60;39.70;;;;;;5053983;28;75028;-71
2021/05/09 04:00:33;;;;;;;;;;;20.70;39.50;;;;;;5054046;28;78050;-69
2021/05/09 04:02:59;;;;;;;;;;;20.70;40.90;;;;;;5053510;28;75727;-69
2021/05/09 04:05:24;;;;;;;;;;;20.70;40.60;;;;;;5055529;28;75199;-66
2021/05/09 04:07:50;;;;;;;;;;;20.70;43.00;;;;;;5054948;28;76824;-67
2021/05/09 04:10:16;;;;;;;;;;;20.70;42.90;;;;;;5087616;27;77151;-74
2021/05/09 04:12:42;;;;;;;;;;;20.70;43.30;;;;;;5055494;28;74981;-72
2021/05/09 04:15:08;;;;;;;;;;;20.60;43.80;;;;;;5054960;27;74507;-73
2021/05/09 04:17:34;;;;;;;;;;;20.50;43.90;;;;;;5055136;28;75151;-74
2021/05/09 04:19:59;;;;;;;;;;;20.50;43.80;;;;;;5053321;28;76374;-71
2021/05/09 04:22:25;;;;;;;;;;;20.50;44.10;;;;;;5055397;28;75120;-67
2021/05/09 04:24:51;;;;;;;;;;;20.50;44.20;;;;;;5055478;28;75147;-65
2021/05/09 04:27:16;;;;;;;;;;;20.40;44.00;;;;;;5053223;28;75495;-65
2021/05/09 04:29:42;;;;;;;;;;;20.40;44.40;;;;;;5055093;28;74497;-65
2021/05/09 04:32:07;;;;;;;;;;;20.40;43.90;;;;;;5053006;28;77206;-66
2021/05/09 04:34:33;;;;;;;;;;;20.40;43.90;;;;;;5053357;28;76196;-65
2021/05/09 04:36:59;;;;;;;;;;;20.40;43.90;;;;;;5055389;28;74434;-66
2021/05/09 04:39:24;;;;;;;;;;;20.40;44.10;;;;;;5053238;28;75198;-72
2021/05/09 04:41:50;;;;;;;;;;;20.40;44.00;;;;;;5054579;27;77247;-69
2021/05/09 04:44:16;;;;;;;;;;;20.40;44.20;;;;;;5086729;27;77355;-69
2021/05/09 04:46:42;;;;;;;;;;;20.40;44.00;;;;;;5054682;28;75281;-67
2021/05/09 04:49:08;;;;;;;;;;;20.40;44.40;;;;;;5054542;28;75372;-69
2021/05/09 04:51:33;;;;;;;;;;;20.40;43.90;;;;;;5053150;28;78445;-69
2021/05/09 04:53:59;;;;;;;;;;;20.40;44.00;;;;;;5055020;28;74358;-68
2021/05/09 04:56:25;;;;;;;;;;;20.50;43.80;;;;;;5054768;28;75715;-67
2021/05/09 04:58:50;;;;;;;;;;;20.50;43.90;;;;;;5054549;28;75644;-67
2021/05/09 05:01:16;;;;;;;;;;;20.40;44.10;;;;;;5054058;27;74576;-65
2021/05/09 05:03:43;;;;;;;;;;;20.50;44.00;;;;;;5052844;28;77781;-71
2021/05/09 05:06:09;;;;;;;;;;;20.40;44.40;;;;;;5053865;28;75369;-73
2021/05/09 05:08:34;;;;;;;;;;;20.50;44.70;;;;;;5054561;28;74523;-72
2021/05/09 05:11:01;;;;;;;;;;;20.40;44.70;;;;;;5054411;28;75528;-73
2021/05/09 05:13:27;;;;;;;;;;;20.50;45.00;;;;;;5052676;28;75446;-73
2021/05/09 05:15:55;;;;;;;;;;;20.40;45.10;;;;;;5054284;27;75162;-74
2021/05/09 05:18:21;;;;;;;;;;;20.40;45.10;;;;;;5054258;28;75292;-79
2021/05/09 05:20:47;;;;;;;;;;;20.40;45.30;;;;;;5054439;28;75288;-76
2021/05/09 05:23:13;;;;;;;;;;;20.40;45.10;;;;;;5052448;28;75460;-73
2021/05/09 05:25:39;;;;;;;;;;;20.30;45.80;;;;;;5054335;28;75157;-73
2021/05/09 05:28:04;;;;;;;;;;;20.20;47.30;;;;;;5054542;28;74705;-69
2021/05/09 05:30:30;;;;;;;;;;;20.10;46.80;;;;;;5053873;28;75624;-67
2021/05/09 05:32:59;;;;;;;;;;;20.00;47.10;;;;;;5052317;28;77512;-67
2021/05/09 05:35:25;;;;;;;;;;;19.90;47.00;;;;;;5053895;28;75111;-66
2021/05/09 05:37:54;;;;;;;;;;;19.90;47.60;;;;;;5052608;28;75406;-66
2021/05/09 05:40:20;;;;;;;;;;;19.90;48.40;;;;;;5048987;27;74594;-73
2021/05/09 05:42:45;;;;;;;;;;;19.80;48.50;;;;;;5038673;27;75451;-69
2021/05/09 05:45:11;;;;;;;;;;;19.80;48.80;;;;;;5032174;27;75541;-71
2021/05/09 05:47:37;;;;;;;;;;;19.70;49.20;;;;;;5033605;28;74587;-74
2021/05/09 05:50:03;;;;;;;;;;;19.70;49.10;;;;;;5032171;28;78149;-72
2021/05/09 05:52:28;;;;;;;;;;;19.70;49.30;;;;;;5038181;28;75095;-72
2021/05/09 05:54:54;;;;;;;;;;;19.70;49.00;;;;;;5052006;28;77504;-74
2021/05/09 05:57:20;;;;;;;;;;;19.70;49.20;;;;;;5052143;28;74745;-73
2021/05/09 05:59:45;;;;;;;;;;;19.70;49.70;;;;;;5051971;28;74786;-68
2021/05/09 06:02:11;;;;;;;;;;;19.70;49.60;;;;;;5053616;28;75074;-69
2021/05/09 06:04:39;;;;;;;;;;;19.70;50.80;;;;;;5053408;28;75374;-74
2021/05/09 06:07:05;;;;;;;;;;;19.70;49.70;;;;;;5053242;28;75711;-74
2021/05/09 06:09:31;;;;;;;;;;;19.70;50.10;;;;;;5053147;28;75335;-72
2021/05/09 06:11:56;;;;;;;;;;;19.70;50.00;;;;;;5052778;28;75424;-73
2021/05/09 06:14:22;;;;;;;;;;;19.70;50.20;;;;;;5051715;27;77335;-74
2021/05/09 06:16:48;;;;;;;;;;;19.80;50.60;;;;;;5051477;28;75695;-71
2021/05/09 06:19:13;;;;;;;;;;;19.70;51.00;;;;;;5085713;27;76252;-69
2021/05/09 06:21:39;;;;;;;;;;;19.70;51.50;;;;;;5053199;28;74520;-69
2021/05/09 06:24:04;;;;;;;;;;;19.70;52.80;;;;;;5053206;28;75641;-68
2021/05/09 06:26:30;;;;;;;;;;;19.60;52.50;;;;;;5051753;27;76138;-68
2021/05/09 06:28:56;;;;;;;;;;;19.60;53.70;;;;;;5051377;28;74654;-67
2021/05/09 06:31:21;;;;;;;;;;;19.50;53.70;;;;;;5051492;28;75296;-64
2021/05/09 06:33:47;;;;;;;;;;;19.40;54.00;;;;;;5053393;28;74440;-65
2021/05/09 06:36:12;;;;;;;;;;;19.40;54.30;;;;;;5053122;28;75108;-67
2021/05/09 06:38:40;;;;;;;;;;;19.40;54.20;;;;;;5052817;28;74438;-67
2021/05/09 06:41:05;;;;;;;;;;;19.40;55.50;;;;;;5052990;28;75140;-64
2021/05/09 06:43:31;;;;;;;;;;;19.40;55.40;;;;;;5052109;27;75181;-65
2021/05/09 06:45:57;;;;;;;;;;;19.40;55.70;;;;;;5042709;28;76291;-65
2021/05/09 06:48:24;;;;;;;;;;;19.30;55.90;;;;;;5031109;28;75811;-63
2021/05/09 06:50:49;;;;;;;;;;;19.30;56.40;;;;;;5032513;28;74587;-65
2021/05/09 06:53:15;;;;;;;;;;;19.30;57.60;;;;;;5032944;28;75241;-77
2021/05/09 06:55:43;;;;;;;;;;;19.30;56.50;;;;;;5032421;28;75229;-73
2021/05/09 06:58:10;;;;;;;;;;;19.30;56.40;;;;;;5030432;28;76517;-76
2021/05/09 07:00:36;;;;;;;;;;;19.30;57.30;;;;;;5032676;28;74419;-78
2021/05/09 07:03:01;;;;;;;;;;;19.30;56.20;;;;;;5028898;28;76408;-79
2021/05/09 07:05:27;;;;;;;;;;;19.40;56.00;;;;;;5030831;28;77282;-79
2021/05/09 07:07:54;;;;;;;;;;;19.40;56.30;;;;;;5028518;28;77115;-74
2021/05/09 07:10:21;;;;;;;;;;;19.50;56.20;;;;;;5032589;28;75463;-71
2021/05/09 07:12:49;;;;;;;;;;;19.70;56.60;;;;;;5031180;28;75615;-80
2021/05/09 07:15:22;;;;;;;;;;;19.80;56.70;;;;;;5047846;27;74419;-73
2021/05/09 07:17:54;;;;;;;;;;;19.90;56.50;;;;;;5052673;28;75193;-70
2021/05/09 07:20:19;;;;;;;;;;;19.90;55.10;;;;;;5050728;28;76456;-65
2021/05/09 07:22:52;;;;;;;;;;;19.90;51.40;;;;;;5050871;28;75404;-66
2021/05/09 07:25:17;;;;;;;;;;;20.00;51.80;;;;;;5053776;28;77149;-65
2021/05/09 07:27:43;;;;;;;;;;;20.00;51.60;;;;;;5056099;28;75200;-67
2021/05/09 07:30:09;;;;;;;;;;;20.00;50.70;;;;;;5055954;28;75634;-64
2021/05/09 07:32:35;;;;;;;;;;;20.00;50.10;;;;;;5048016;27;76000;-65
2021/05/09 07:35:00;;;;;;;;;;;20.20;50.10;;;;;;5054456;28;75198;-66
2021/05/09 07:37:26;;;;;;;;;;;20.20;49.10;;;;;;5044384;28;75278;-65
2021/05/09 07:39:51;;;;;;;;;;;20.10;49.70;;;;;;5034097;28;76601;-67
2021/05/09 07:42:17;;;;;;;;;;;20.20;50.10;;;;;;5035576;28;75481;-66
2021/05/09 07:44:42;;;;;;;;;;;20.20;49.30;;;;;;5046050;27;75123;-65
2021/05/09 07:47:08;;;;;;;;;;;20.20;49.00;;;;;;5054479;27;75424;-64
2021/05/09 07:49:34;;;;;;;;;;;20.20;49.40;;;;;;5047868;28;75670;-65
2021/05/09 07:51:59;;;;;;;;;;;20.40;49.40;;;;;;5035656;28;75176;-65
2021/05/09 07:54:25;;;;;;;;;;;20.60;48.70;;;;;;5031566;28;78002;-65
2021/05/09 07:56:50;;;;;;;;;;;20.70;48.30;;;;;;5033344;28;77516;-66
2021/05/09 07:59:16;;;;;;;;;;;20.70;48.40;;;;;;5035011;28;75187;-64
2021/05/09 08:01:42;;;;;;;;;;;20.70;48.30;;;;;;5033727;28;75488;-66
2021/05/09 08:04:07;;;;;;;;;;;20.70;48.60;;;;;;5035042;28;75089;-65
2021/05/09 08:06:33;;;;;;;;;;;20.80;48.40;;;;;;5033175;28;77639;-65
2021/05/09 08:08:58;;;;;;;;;;;20.90;48.20;;;;;;5033876;28;77337;-66
2021/05/09 08:11:24;;;;;;;;;;;21.00;48.40;;;;;;5034165;28;78522;-66
2021/05/09 08:13:50;;;;;;;;;;;21.00;48.20;;;;;;5036682;27;76268;-66
2021/05/09 08:16:15;;;;;;;;;;;21.20;47.90;;;;;;5053641;28;77399;-65
2021/05/09 08:18:41;;;;;;;;;;;21.30;47.80;;;;;;5055169;28;75179;-66
2021/05/09 08:21:06;;;;;;;;;;;21.40;47.20;;;;;;5055634;28;74508;-66
2021/05/09 08:23:35;;;;;;;;;;;21.40;47.20;;;;;;5053501;28;76139;-67
2021/05/09 08:26:00;;;;;;;;;;;21.50;47.20;;;;;;5053879;28;76324;-67
2021/05/09 08:28:26;;;;;;;;;;;21.60;46.40;;;;;;5055349;28;74568;-65
2021/05/09 08:30:52;;;;;;;;;;;21.60;46.50;;;;;;5055792;28;74477;-64
2021/05/09 08:33:17;;;;;;;;;;;21.50;46.50;;;;;;5054875;28;75106;-65
2021/05/09 08:35:43;;;;;;;;;;;21.40;46.60;;;;;;5054621;27;74674;-65
2021/05/09 08:38:08;;;;;;;;;;;21.30;46.60;;;;;;5053440;28;76412;-66
2021/05/09 08:40:34;;;;;;;;;;;21.10;46.60;;;;;;5053478;28;74668;-65
2021/05/09 08:43:00;;;;;;;;;;;21.10;46.70;;;;;;5055273;28;75176;-65
2021/05/09 08:45:26;;;;;;;;;;;21.00;46.80;;;;;;5054688;27;75125;-66
2021/05/09 08:47:54;;;;;;;;;;;20.90;47.10;;;;;;5054796;28;75162;-66
2021/05/09 08:50:21;;;;;;;;;;;20.90;47.40;;;;;;5054817;28;75183;-67
2021/05/09 08:52:48;;;;;;;;;;;20.80;47.30;;;;;;5053224;28;77152;-65
2021/05/09 08:55:16;;;;;;;;;;;20.70;47.20;;;;;;5053245;28;77482;-66
2021/05/09 08:57:41;;;;;;;;;;;20.60;47.50;;;;;;5054498;28;75026;-65
2021/05/09 09:00:08;;;;;;;;;;;20.50;47.80;;;;;;5054971;28;75149;-66
2021/05/09 09:02:34;;;;;;;;;;;20.40;48.10;;;;;;5053132;28;75744;-65
2021/05/09 09:05:00;;;;;;;;;;;20.50;48.20;;;;;;5054473;28;74674;-64
2021/05/09 09:07:42;;;;;;;;;;;20.50;47.90;;;;;;5054197;28;75527;-64
2021/05/09 09:10:08;;;;;;;;;;;20.60;47.40;;;;;;5053422;28;76051;-66
2021/05/09 09:12:36;;;;;;;;;;;20.70;47.10;;;;;;5054493;28;74410;-65
2021/05/09 09:15:02;;;;;;;;;;;20.80;46.40;;;;;;5054233;27;75116;-64
2021/05/09 09:17:27;;;;;;;;;;;20.90;45.70;;;;;;5053246;28;75207;-66
2021/05/09 09:19:59;;;;;;;;;;;21.00;45.20;;;;;;5053557;28;76581;-67
2021/05/09 09:22:24;;;;;;;;;;;21.30;44.70;;;;;;5052904;28;77749;-66
2021/05/09 09:25:09;;;;;;;;;;;21.50;43.90;;;;;;5054477;28;75239;-66
2021/05/09 09:27:41;;;;;;;;;;;21.60;42.80;;;;;;5053388;28;75553;-65
2021/05/09 09:30:07;;;;;;;;;;;21.60;43.00;;;;;;5054549;28;76215;-65
2021/05/09 09:32:33;;;;;;;;;;;21.70;42.60;;;;;;5052583;28;78261;-65
2021/05/09 09:34:59;;;;;;;;;;;21.90;42.90;;;;;;5054688;28;74616;-65
2021/05/09 09:37:30;;;;;;;;;;;22.20;41.80;;;;;;5086162;27;77141;-65
2021/05/09 09:40:00;;;;;;;;;;;22.40;40.70;;;;;;5052373;28;76251;-66
2021/05/09 09:42:37;;;;;;;;;;;22.40;40.60;;;;;;5054336;28;74489;-65
2021/05/09 09:45:13;;;;;;;;;;;22.30;40.70;;;;;;5052497;27;76497;-65
2021/05/09 09:47:48;;;;;;;;;;;22.30;40.70;;;;;;5052514;27;75575;-65
2021/05/09 09:50:32;;;;;;;;;;;22.10;41.20;;;;;;5054219;28;75727;-65
2021/05/09 09:52:58;;;;;;;;;;;21.90;41.90;;;;;;5052460;28;77035;-65
2021/05/09 09:55:23;;;;;;;;;;;21.80;42.10;;;;;;5054039;28;75638;-65
2021/05/09 09:58:00;;;;;;;;;;;21.80;42.40;;;;;;5052488;28;75790;-66
2021/05/09 10:00:25;;;;;;;;;;;21.80;42.10;;;;;;5053796;28;75246;-66
2021/05/09 10:02:51;;;;;;;;;;;21.90;42.30;;;;;;5053790;28;75242;-65
2021/05/09 10:05:17;;;;;;;;;;;21.90;42.40;;;;;;5053770;28;75639;-64
2021/05/09 10:07:43;;;;;;;;;;;22.00;42.20;;;;;;5052031;27;77527;-65
2021/05/09 10:10:09;;;;;;;;;;;21.90;42.50;;;;;;5053750;28;75686;-66
2021/05/09 10:12:35;;;;;;;;;;;21.90;42.70;;;;;;5051997;28;78900;-65
2021/05/09 10:15:01;;;;;;;;;;;21.90;42.10;;;;;;5052060;27;78475;-65
2021/05/09 10:17:31;;;;;;;;;;;21.90;42.10;;;;;;5052086;28;78044;-66
2021/05/09 10:19:57;;;;;;;;;;;21.80;42.00;;;;;;5053981;28;74562;-66
2021/05/09 10:22:26;;;;;;;;;;;21.70;42.60;;;;;;5051800;28;77734;-66
2021/05/09 10:24:52;;;;;;;;;;;21.80;42.30;;;;;;5051831;28;78098;-66
2021/05/09 10:27:18;;;;;;;;;;;21.90;42.50;;;;;;5054095;28;74506;-65
2021/05/09 10:29:45;;;;;;;;;;;21.90;42.10;;;;;;5053248;28;75397;-65
2021/05/09 10:32:20;;;;;;;;;;;22.00;42.60;;;;;;5051758;28;77998;-66
2021/05/09 10:34:56;;;;;;;;;;;22.00;42.40;;;;;;5053392;28;74738;-66
2021/05/09 10:40:17;;;;;;;;;;;22.00;42.70;;;;;;5051446;28;74568;-66
2021/05/09 10:42:43;;;;;;;;;;;21.90;42.90;;;;;;5051837;28;76468;-65
2021/05/09 10:45:09;;;;;;;;;;;21.90;44.10;;;;;;5051445;27;75799;-67
2021/05/09 10:47:34;;;;;;;;;;;21.70;44.70;;;;;;5053090;28;75661;-66
2021/05/09 10:50:13;;;;;;;;;;;21.50;45.50;;;;;;5051574;28;75466;-65
2021/05/09 10:52:42;;;;;;;;;;;21.50;45.90;;;;;;5052905;28;75355;-65
2021/05/09 10:55:26;;;;;;;;;;;21.60;46.00;;;;;;5053150;28;75288;-66
2021/05/09 10:57:53;;;;;;;;;;;21.90;45.00;;;;;;5052580;27;75044;-66
2021/05/09 11:00:18;;;;;;;;;;;22.00;44.40;;;;;;5052968;28;74463;-65
2021/05/09 11:02:44;;;;;;;;;;;22.40;43.90;;;;;;5052643;28;75634;-66
2021/05/09 11:05:10;;;;;;;;;;;22.80;42.70;;;;;;5052953;28;75116;-66
2021/05/09 11:07:45;;;;;;;;;;;22.70;41.60;;;;;;5051249;28;75202;-66
2021/05/09 11:10:36;;;;;;;;;;;22.70;40.30;;;;;;5051215;28;76381;-66
2021/05/09 11:13:05;;;;;;;;;;;22.60;40.60;;;;;;5052722;28;75329;-66
2021/05/09 11:15:31;;;;;;;;;;;22.80;40.60;;;;;;5050859;27;75341;-66
2021/05/09 11:17:57;;;;;;;;;;;23.10;39.70;;;;;;5051061;28;77160;-66
2021/05/09 11:20:23;;;;;;;;;;;23.40;37.90;;;;;;5084968;27;74681;-66
2021/05/09 11:22:58;;;;;;;;;;;23.90;38.20;;;;;;5052816;28;74939;-67
2021/05/09 11:25:31;;;;;;;;;;;24.20;36.80;;;;;;5051223;28;75408;-65
2021/05/09 11:27:56;;;;;;;;;;;23.90;36.90;;;;;;5051636;28;78048;-65
2021/05/09 11:30:31;;;;;;;;;;;23.50;37.50;;;;;;5052538;28;74999;-66
2021/05/09 11:32:57;;;;;;;;;;;23.40;37.90;;;;;;5050659;28;75589;-65
2021/05/09 11:35:34;;;;;;;;;;;23.20;38.10;;;;;;5052504;28;75259;-65
2021/05/09 11:38:00;;;;;;;;;;;23.20;38.00;;;;;;5050965;28;76968;-65
2021/05/09 11:40:25;;;;;;;;;;;23.00;38.00;;;;;;5050975;28;78060;-66
2021/05/09 11:42:51;;;;;;;;;;;22.60;38.30;;;;;;5052509;28;75502;-65
2021/05/09 11:45:23;;;;;;;;;;;22.40;38.50;;;;;;5084961;27;74592;-66
2021/05/09 11:47:49;;;;;;;;;;;22.30;38.10;;;;;;5052145;28;75241;-67
2021/05/09 11:50:17;;;;;;;;;;;22.40;38.30;;;;;;5052128;28;75283;-66
2021/05/09 11:52:44;;;;;;;;;;;22.70;37.60;;;;;;5050566;28;77908;-65
2021/05/09 11:55:11;;;;;;;;;;;22.90;37.10;;;;;;5050438;28;75332;-65
2021/05/09 11:57:37;;;;;;;;;;;23.30;36.20;;;;;;5052517;28;74981;-66
2021/05/09 12:00:09;;;;;;;;;;;23.80;34.10;;;;;;5050749;28;78307;-66
2021/05/09 12:02:38;;;;;;;;;;;24.50;33.50;;;;;;5050660;28;77408;-66
2021/05/09 12:05:17;;;;;;;;;;;25.30;32.10;;;;;;5050638;28;77658;-66
2021/05/09 12:07:45;;;;;;;;;;;24.70;31.60;;;;;;5050276;28;76783;-66
2021/05/09 12:10:15;;;;;;;;;;;24.10;31.80;;;;;;5050608;27;76427;-66
2021/05/09 12:12:41;;;;;;;;;;;23.50;32.60;;;;;;5055767;28;75189;-65
2021/05/09 12:15:08;;;;;;;;;;;23.40;33.10;;;;;;5053381;27;77248;-66
2021/05/09 12:17:34;;;;;;;;;;;23.50;33.80;;;;;;5051962;28;76074;-66
2021/05/09 12:20:00;;;;;;;;;;;23.70;32.20;;;;;;5052427;28;75844;-66
2021/05/09 12:22:36;;;;;;;;;;;23.60;32.30;;;;;;5054156;27;74589;-67
2021/05/09 12:25:02;;;;;;;;;;;23.40;32.40;;;;;;5051725;28;75074;-67
2021/05/09 12:27:27;;;;;;;;;;;23.10;33.40;;;;;;5052007;28;77594;-66
2021/05/09 12:29:57;;;;;;;;;;;22.80;31.80;;;;;;5053431;27;74480;-66
2021/05/09 12:32:28;;;;;;;;;;;22.40;32.80;;;;;;5051986;28;76169;-66
2021/05/09 12:34:59;;;;;;;;;;;22.10;33.10;;;;;;5053249;28;75897;-67
2021/05/09 12:37:29;;;;;;;;;;;21.90;33.30;;;;;;5052862;28;74679;-66
2021/05/09 12:40:13;;;;;;;;;;;21.90;33.50;;;;;;5053303;28;75630;-66
2021/05/09 12:42:52;;;;;;;;;;;22.00;33.20;;;;;;5051704;28;77245;-66
2021/05/09 12:45:18;;;;;;;;;;;21.80;33.90;;;;;;5053441;27;75261;-67
2021/05/09 12:47:44;;;;;;;;;;;21.60;33.30;;;;;;5052773;27;75424;-65
2021/05/09 12:50:09;;;;;;;;;;;21.40;33.70;;;;;;5053901;28;76889;-66
2021/05/09 12:52:47;;;;;;;;;;;21.20;33.80;;;;;;5052966;28;77291;-66
2021/05/09 12:55:31;;;;;;;;;;;21.00;32.50;;;;;;5053587;28;76317;-67
2021/05/09 12:58:06;;;;;;;;;;;20.80;32.90;;;;;;5053001;28;75404;-65
2021/05/09 13:00:32;;;;;;;;;;;20.50;33.90;;;;;;5053434;28;77612;-65
2021/05/09 13:02:58;;;;;;;;;;;20.30;34.30;;;;;;5053594;27;75610;-65
2021/05/09 13:05:25;;;;;;;;;;;20.00;35.00;;;;;;5051429;28;76289;-66
2021/05/09 13:07:51;;;;;;;;;;;19.70;45.30;;;;;;5052121;27;75654;-65
2021/05/09 13:10:21;;;;;;;;;;;18.90;46.50;;;;;;5051379;28;75561;-65
2021/05/09 13:12:50;;;;;;;;;;;18.10;48.20;;;;;;5051532;28;75223;-65
2021/05/09 13:15:16;;;;;;;;;;;17.70;48.80;;;;;;5051484;27;78129;-65
2021/05/09 13:17:42;;;;;;;;;;;17.40;47.30;;;;;;5051347;28;74590;-66
2021/05/09 13:20:08;;;;;;;;;;;17.20;49.40;;;;;;5052892;28;76520;-66
2021/05/09 13:22:34;;;;;;;;;;;17.00;53.90;;;;;;5052655;27;74564;-65
2021/05/09 13:24:59;;;;;;;;;;;16.90;56.20;;;;;;5053007;27;75174;-65
2021/05/09 13:27:30;;;;;;;;;;;16.50;54.20;;;;;;5052655;27;75209;-65
2021/05/09 13:29:56;;;;;;;;;;;16.40;53.70;;;;;;5049187;28;77560;-65
2021/05/09 13:32:22;;;;;;;;;;;16.10;56.00;;;;;;5050380;28;75218;-65
2021/05/09 13:34:48;;;;;;;;;;;15.90;56.20;;;;;;5048280;28;77105;-65
2021/05/09 13:37:13;;;;;;;;;;;15.80;56.90;;;;;;5052675;27;75717;-65
2021/05/09 13:39:39;;;;;;;;;;;15.60;68.60;;;;;;5051219;28;76590;-66
2021/05/09 13:42:05;;;;;;;;;;;15.00;79.40;;;;;;5051091;28;76885;-66
2021/05/09 13:44:34;;;;;;;;;;;14.40;79.40;;;;;;5050832;27;74722;-66
2021/05/09 13:47:00;;;;;;;;;;;13.90;82.50;;;;;;5051884;28;75142;-64
2021/05/09 13:49:25;;;;;;;;;;;13.70;83.80;;;;;;5053480;27;75267;-64
2021/05/09 13:51:51;;;;;;;;;;;13.60;85.20;;;;;;5052616;28;77153;-65
2021/05/09 13:54:17;;;;;;;;;;;13.60;85.80;;;;;;5052529;27;75562;-65
2021/05/09 13:56:43;;;;;;;;;;;13.40;85.40;;;;;;5053610;28;74949;-65
2021/05/09 13:59:09;;;;;;;;;;;13.30;86.50;;;;;;5085352;27;75065;-65
2021/05/09 14:01:34;;;;;;;;;;;13.20;86.70;;;;;;5052350;28;75767;-65
2021/05/09 14:04:00;;;;;;;;;;;13.30;87.10;;;;;;5050896;28;75116;-65
2021/05/09 14:06:26;;;;;;;;;;;13.40;87.50;;;;;;5050182;28;76371;-63
2021/05/09 14:08:52;;;;;;;;;;;13.40;88.30;;;;;;5052067;28;75237;-65
2021/05/09 14:11:18;;;;;;;;;;;13.50;88.40;;;;;;5052086;27;74577;-64
2021/05/09 14:13:45;;;;;;;;;;;13.70;88.30;;;;;;5051977;27;74762;-66
2021/05/09 14:16:11;;;;;;;;;;;13.90;88.20;;;;;;5050417;28;76073;-64
2021/05/09 14:18:37;;;;;;;;;;;14.00;87.70;;;;;;5051739;28;75402;-64